Time;durP1;ratioP1;P1;durP2;ratioP2;P2;SDS_P1;SDS_P2;PMS_P1;PMS_P2;Temp;Humidity;BMP_temperature;BMP_pressure;BME280_temperature;BME280_humidity;BME280_pressure;Samples;Min_cycle;Max_cycle;Signal;HPM_P1;HPM_P2
2022/11/14 00:02:42;;;;;;;19.38;11.80;;;8.30;99.90;;;;;;5047313;28;20047;-82
2022/11/14 00:05:28;;;;;;;19.45;12.00;;;8.30;99.90;;;;;;5046128;28;20103;-83
2022/11/14 00:08:16;;;;;;;19.67;11.68;;;8.20;99.90;;;;;;5045182;28;20091;-83
2022/11/14 00:11:01;;;;;;;20.83;12.20;;;8.40;99.90;;;;;;5048966;28;20048;-83
2022/11/14 00:13:47;;;;;;;19.58;12.32;;;8.20;99.90;;;;;;5039296;28;20119;-83
2022/11/14 00:16:34;;;;;;;19.10;11.75;;;8.20;99.90;;;;;;5037575;28;20509;-83
2022/11/14 00:19:19;;;;;;;18.60;11.38;;;8.20;99.90;;;;;;5035976;28;20079;-83
2022/11/14 00:22:05;;;;;;;18.83;11.02;;;8.20;99.90;;;;;;5043000;28;20142;-82
2022/11/14 00:24:50;;;;;;;18.30;11.35;;;8.10;99.90;;;;;;5039587;28;20413;-83
2022/11/14 00:27:36;;;;;;;20.08;11.70;;;8.10;99.90;;;;;;5050001;28;20461;-83
2022/11/14 00:30:21;;;;;;;21.95;12.40;;;8.10;99.90;;;;;;5041779;28;20055;-83
2022/11/14 00:33:08;;;;;;;21.10;12.35;;;8.10;99.90;;;;;;5041408;28;20056;-83
2022/11/14 00:35:55;;;;;;;20.17;12.73;;;8.10;99.90;;;;;;5046981;28;20460;-83
2022/11/14 00:38:40;;;;;;;19.27;11.80;;;8.10;99.90;;;;;;5044770;28;20528;-83
2022/11/14 00:41:26;;;;;;;21.27;12.57;;;8.10;99.90;;;;;;5051900;28;20130;-83
2022/11/14 00:44:12;;;;;;;23.52;12.90;;;8.00;99.90;;;;;;5049430;28;20725;-83
2022/11/14 00:46:57;;;;;;;20.02;11.70;;;8.10;99.90;;;;;;5046669;28;20130;-83
2022/11/14 00:49:44;;;;;;;21.50;12.82;;;8.10;99.90;;;;;;5036655;28;20061;-83
2022/11/14 00:52:29;;;;;;;20.23;13.45;;;8.10;99.90;;;;;;5031394;28;20529;-83
2022/11/14 00:55:15;;;;;;;20.15;12.77;;;8.10;99.90;;;;;;5047495;28;20064;-83
2022/11/14 00:58:00;;;;;;;21.33;12.02;;;8.10;99.90;;;;;;5041282;28;20055;-83
2022/11/14 01:00:46;;;;;;;18.40;11.68;;;8.10;99.90;;;;;;5042754;28;20064;-83
2022/11/14 01:03:32;;;;;;;22.58;12.23;;;8.10;99.90;;;;;;5051330;28;20052;-84
2022/11/14 01:06:19;;;;;;;20.60;12.07;;;8.10;99.90;;;;;;5039447;28;20072;-84
2022/11/14 01:09:04;;;;;;;20.90;12.05;;;8.00;99.90;;;;;;5048101;28;20057;-83
2022/11/14 01:11:50;;;;;;;20.00;11.70;;;8.10;99.90;;;;;;5050286;28;20056;-83
2022/11/14 01:14:36;;;;;;;21.33;11.98;;;7.90;99.90;;;;;;5040175;28;20057;-83
2022/11/14 01:17:21;;;;;;;18.98;11.98;;;7.90;99.90;;;;;;5043119;28;20057;-83
2022/11/14 01:20:08;;;;;;;23.33;12.32;;;7.90;99.90;;;;;;5050426;28;20048;-83
2022/11/14 01:22:55;;;;;;;20.27;12.40;;;7.90;99.90;;;;;;5046839;28;20102;-83
2022/11/14 01:25:41;;;;;;;19.50;11.40;;;7.90;99.90;;;;;;5037137;28;20060;-83
2022/11/14 01:28:27;;;;;;;21.52;12.43;;;7.80;99.90;;;;;;5047900;28;20153;-83
2022/11/14 01:31:15;;;;;;;23.70;13.90;;;7.80;99.90;;;;;;5051307;28;20150;-83
2022/11/14 01:34:00;;;;;;;21.70;11.35;;;7.70;99.90;;;;;;5048888;28;20100;-83
2022/11/14 01:36:46;;;;;;;23.23;13.07;;;7.70;99.90;;;;;;5039093;28;20072;-83
2022/11/14 01:39:33;;;;;;;20.50;12.38;;;7.70;99.90;;;;;;5045781;28;20451;-83
2022/11/14 01:42:18;;;;;;;20.75;12.13;;;7.70;99.90;;;;;;5047346;28;20111;-83
2022/11/14 01:45:39;;;;;;;17.95;11.63;;;7.60;99.90;;;;;;5040307;28;20051;-83
2022/11/14 01:48:28;;;;;;;19.58;11.70;;;7.60;99.90;;;;;;5050805;28;20063;-82
2022/11/14 01:51:19;;;;;;;19.88;11.75;;;7.60;99.90;;;;;;5030974;28;20056;-83
2022/11/14 01:54:07;;;;;;;21.85;11.65;;;7.60;99.90;;;;;;5032993;28;20048;-83
2022/11/14 01:56:56;;;;;;;18.67;11.43;;;7.60;99.90;;;;;;5032294;28;20150;-83
2022/11/14 01:59:44;;;;;;;19.35;11.27;;;7.60;99.90;;;;;;5044348;28;20125;-83
2022/11/14 02:02:30;;;;;;;19.33;11.40;;;7.60;99.90;;;;;;5042456;28;20075;-83
2022/11/14 02:05:16;;;;;;;17.65;9.93;;;7.60;99.90;;;;;;5044768;28;20815;-83
2022/11/14 02:08:01;;;;;;;19.23;11.55;;;7.70;99.90;;;;;;5046068;28;20102;-83
2022/11/14 02:10:47;;;;;;;18.30;11.63;;;7.60;99.90;;;;;;5050010;28;20413;-83
2022/11/14 02:13:34;;;;;;;20.25;11.40;;;7.60;99.90;;;;;;5047230;28;20175;-83
2022/11/14 02:16:20;;;;;;;18.63;10.50;;;7.70;99.90;;;;;;5037543;28;20048;-83
2022/11/14 02:19:05;;;;;;;18.20;10.93;;;7.60;99.90;;;;;;5040232;28;20060;-83
2022/11/14 02:21:52;;;;;;;19.23;11.13;;;7.60;99.90;;;;;;5043682;28;20254;-84
2022/11/14 02:24:38;;;;;;;22.67;11.75;;;7.60;99.90;;;;;;5041610;28;20068;-83
2022/11/14 02:27:23;;;;;;;20.38;11.30;;;7.60;99.90;;;;;;5038422;28;20179;-83
2022/11/14 02:30:12;;;;;;;18.83;11.30;;;7.60;99.90;;;;;;5045072;28;20418;-83
2022/11/14 02:32:57;;;;;;;17.50;11.48;;;7.60;99.90;;;;;;5049187;28;20106;-83
2022/11/14 02:35:43;;;;;;;20.50;11.00;;;7.60;99.90;;;;;;5033709;28;20103;-83
2022/11/14 02:38:30;;;;;;;18.48;10.60;;;7.60;99.90;;;;;;5037657;28;20067;-83
2022/11/14 02:41:15;;;;;;;18.27;10.40;;;7.50;99.90;;;;;;5030055;28;20075;-83
2022/11/14 02:44:01;;;;;;;19.63;10.65;;;7.50;99.90;;;;;;5038202;28;20201;-83
2022/11/14 02:46:46;;;;;;;16.17;10.27;;;7.50;99.90;;;;;;5048290;28;20544;-83
2022/11/14 02:49:32;;;;;;;17.52;9.90;;;7.50;99.90;;;;;;5048800;28;20055;-83
2022/11/14 02:52:17;;;;;;;18.90;11.02;;;7.50;99.90;;;;;;5040058;28;20052;-83
2022/11/14 02:55:04;;;;;;;17.63;10.48;;;7.50;99.90;;;;;;5047745;28;20056;-83
2022/11/14 02:57:50;;;;;;;17.00;10.48;;;7.40;99.90;;;;;;5035155;28;20856;-83
2022/11/14 03:00:35;;;;;;;17.08;10.05;;;7.50;99.90;;;;;;5034685;28;20079;-83
2022/11/14 03:03:21;;;;;;;18.17;10.73;;;7.50;99.90;;;;;;5046751;28;20542;-83
2022/11/14 03:06:07;;;;;;;17.52;10.13;;;7.40;99.90;;;;;;5048388;28;20098;-83
2022/11/14 03:08:52;;;;;;;19.40;10.95;;;7.40;99.90;;;;;;5044737;28;20060;-83
2022/11/14 03:11:40;;;;;;;14.82;9.65;;;7.30;99.90;;;;;;5048441;28;20048;-83
2022/11/14 03:14:25;;;;;;;19.08;10.90;;;7.30;99.90;;;;;;5043568;28;20048;-83
2022/11/14 03:17:11;;;;;;;20.80;11.10;;;7.30;99.90;;;;;;5029257;28;20060;-83
2022/11/14 03:19:57;;;;;;;16.42;9.80;;;7.40;99.90;;;;;;5047585;28;20064;-83
2022/11/14 03:22:42;;;;;;;17.23;10.57;;;7.40;99.90;;;;;;5046398;28;20078;-83
2022/11/14 03:25:28;;;;;;;16.92;9.90;;;7.40;99.90;;;;;;5046481;28;20647;-83
2022/11/14 03:28:14;;;;;;;18.42;9.63;;;7.40;99.90;;;;;;5048421;28;20052;-83
2022/11/14 03:31:00;;;;;;;17.73;10.27;;;7.40;99.90;;;;;;5049371;28;20154;-83
2022/11/14 03:33:45;;;;;;;18.50;10.32;;;7.30;99.90;;;;;;5033303;28;20091;-83
2022/11/14 03:36:31;;;;;;;17.38;10.10;;;7.30;99.90;;;;;;5045142;28;20726;-83
2022/11/14 03:39:17;;;;;;;15.50;10.07;;;7.30;99.90;;;;;;5045666;28;20052;-83
2022/11/14 03:42:02;;;;;;;16.88;10.43;;;7.30;99.90;;;;;;5035132;28;20072;-83
2022/11/14 03:44:49;;;;;;;17.77;9.75;;;7.30;99.90;;;;;;5045925;28;20098;-83
2022/11/14 03:47:34;;;;;;;19.00;11.10;;;7.30;99.90;;;;;;5037234;28;20059;-83
2022/11/14 03:50:20;;;;;;;16.73;10.05;;;7.20;99.90;;;;;;5048274;28;20063;-83
2022/11/14 03:53:06;;;;;;;15.52;10.10;;;7.20;99.90;;;;;;5046732;28;20118;-83
2022/11/14 03:55:51;;;;;;;16.95;10.35;;;7.20;99.90;;;;;;5041527;28;20056;-83
2022/11/14 03:58:37;;;;;;;15.80;9.82;;;7.30;99.90;;;;;;5047710;28;20618;-83
2022/11/14 04:01:24;;;;;;;19.52;11.15;;;7.20;99.90;;;;;;5040583;28;20102;-83
2022/11/14 04:04:11;;;;;;;15.60;9.68;;;7.20;99.90;;;;;;5045533;28;20064;-83
2022/11/14 04:06:57;;;;;;;17.90;10.40;;;7.20;99.90;;;;;;5047030;28;20183;-83
2022/11/14 04:09:43;;;;;;;16.23;10.45;;;7.20;99.90;;;;;;5045620;28;20059;-83
2022/11/14 04:12:29;;;;;;;17.60;10.40;;;7.30;99.90;;;;;;5031213;28;20429;-83
2022/11/14 04:15:15;;;;;;;17.52;10.50;;;7.30;99.90;;;;;;5037983;28;20262;-83
2022/11/14 04:18:02;;;;;;;18.35;10.43;;;7.20;99.90;;;;;;5039898;28;20138;-83
2022/11/14 04:20:47;;;;;;;14.60;9.75;;;7.20;99.90;;;;;;5048952;28;20081;-83
2022/11/14 04:23:32;;;;;;;14.25;9.50;;;7.20;99.90;;;;;;5046563;28;20048;-83
2022/11/14 04:26:18;;;;;;;16.98;10.65;;;7.10;99.90;;;;;;5105188;22;20066;-83
2022/11/14 04:29:04;;;;;;;18.65;10.35;;;7.10;99.90;;;;;;5068489;28;20051;-83
2022/11/14 04:31:49;;;;;;;16.50;10.63;;;7.10;99.90;;;;;;5075201;28;20154;-83
2022/11/14 04:34:36;;;;;;;17.00;10.23;;;7.10;99.90;;;;;;5076122;28;20051;-84
2022/11/14 04:37:22;;;;;;;17.55;10.40;;;7.20;99.90;;;;;;5085706;28;20894;-83
2022/11/14 04:40:09;;;;;;;15.50;10.10;;;7.00;99.90;;;;;;5073729;28;20058;-83
2022/11/14 04:42:54;;;;;;;14.38;9.35;;;7.00;99.90;;;;;;5091428;28;20177;-83
2022/11/14 04:45:40;;;;;;;14.32;9.00;;;7.00;99.90;;;;;;5081245;28;20173;-83
2022/11/14 04:48:25;;;;;;;17.33;10.25;;;7.00;99.90;;;;;;5079055;28;20059;-83
2022/11/14 04:51:12;;;;;;;17.30;9.65;;;7.00;99.90;;;;;;5089196;28;20534;-83
2022/11/14 04:53:58;;;;;;;16.42;10.30;;;7.00;99.90;;;;;;5091262;28;20527;-83
2022/11/14 04:56:43;;;;;;;19.73;11.27;;;7.00;99.90;;;;;;5079922;28;20063;-83
2022/11/14 04:59:29;;;;;;;16.95;11.32;;;7.00;99.90;;;;;;5080956;28;20051;-83
2022/11/14 05:02:14;;;;;;;19.67;11.45;;;7.00;99.90;;;;;;5083094;28;20055;-83
2022/11/14 05:05:00;;;;;;;17.40;10.65;;;7.00;99.90;;;;;;5089246;28;20051;-83
2022/11/14 05:07:47;;;;;;;15.95;10.07;;;7.10;99.90;;;;;;5091868;28;20062;-84
2022/11/14 05:10:33;;;;;;;15.23;10.18;;;7.00;99.90;;;;;;5091479;28;20222;-83
2022/11/14 05:13:18;;;;;;;18.70;9.93;;;7.00;99.90;;;;;;5087521;28;20052;-83
2022/11/14 05:16:04;;;;;;;15.80;10.93;;;7.00;99.90;;;;;;5081560;28;20416;-83
2022/11/14 05:18:53;;;;;;;16.85;10.30;;;7.00;99.90;;;;;;5091298;28;20069;-83
2022/11/14 05:21:38;;;;;;;15.45;9.75;;;7.00;99.90;;;;;;5073520;28;20531;-83
2022/11/14 05:24:27;;;;;;;16.08;10.15;;;7.00;99.90;;;;;;5085246;28;20051;-83
2022/11/14 05:27:12;;;;;;;16.13;10.55;;;7.00;99.90;;;;;;5087766;28;20062;-83
2022/11/14 05:29:58;;;;;;;18.10;10.13;;;7.00;99.90;;;;;;5088107;28;20063;-83
2022/11/14 05:32:43;;;;;;;18.50;10.77;;;6.90;99.90;;;;;;5089328;28;20581;-83
2022/11/14 05:35:29;;;;;;;15.32;10.25;;;7.00;99.90;;;;;;5075756;28;20055;-83
2022/11/14 05:38:14;;;;;;;14.38;8.77;;;7.00;99.90;;;;;;5090540;28;20059;-83
2022/11/14 05:41:05;;;;;;;13.63;8.38;;;7.00;99.90;;;;;;5090784;28;20051;-83
2022/11/14 05:43:50;;;;;;;13.60;7.07;;;7.20;99.90;;;;;;5090340;28;20066;-83
2022/11/14 05:46:36;;;;;;;11.93;7.55;;;7.30;99.90;;;;;;5082508;28;20059;-83
2022/11/14 05:49:23;;;;;;;12.38;7.60;;;7.40;99.90;;;;;;5081921;28;20117;-83
2022/11/14 05:52:08;;;;;;;14.77;7.95;;;7.60;99.90;;;;;;5078092;28;20056;-83
2022/11/14 05:54:54;;;;;;;14.13;8.32;;;7.70;99.90;;;;;;5085277;28;20051;-83
2022/11/14 05:57:43;;;;;;;13.95;7.65;;;7.80;99.90;;;;;;5084219;28;20051;-83
2022/11/14 06:00:28;;;;;;;13.32;7.95;;;7.80;99.90;;;;;;5083480;28;20066;-83
2022/11/14 06:03:14;;;;;;;12.10;7.82;;;7.80;99.90;;;;;;5090105;28;20046;-85
2022/11/14 06:06:01;;;;;;;13.40;7.70;;;7.80;99.90;;;;;;5087660;28;20051;-83
2022/11/14 06:08:46;;;;;;;12.48;7.70;;;7.80;99.90;;;;;;5078186;28;20137;-87
2022/11/14 06:11:32;;;;;;;15.40;8.18;;;7.80;99.90;;;;;;5085919;28;20136;-83
2022/11/14 06:14:18;;;;;;;13.88;9.05;;;7.80;99.90;;;;;;5086372;28;20051;-83
2022/11/14 06:17:04;;;;;;;13.82;9.02;;;7.80;99.90;;;;;;5080076;28;20698;-83
2022/11/14 06:19:49;;;;;;;17.50;10.00;;;7.70;99.90;;;;;;5083290;28;20077;-84
2022/11/14 06:22:35;;;;;;;15.40;9.38;;;7.70;99.90;;;;;;5077373;28;20062;-85
2022/11/14 06:25:20;;;;;;;15.32;8.98;;;7.60;99.90;;;;;;5077532;28;20044;-82
2022/11/14 06:28:06;;;;;;;17.52;9.40;;;7.60;99.90;;;;;;5088362;28;20185;-83
2022/11/14 06:30:57;;;;;;;13.55;9.13;;;7.50;99.90;;;;;;5078129;28;20436;-83
2022/11/14 06:33:42;;;;;;;15.52;9.65;;;7.50;99.90;;;;;;5077106;28;20123;-83
2022/11/14 06:36:29;;;;;;;19.70;11.05;;;7.40;99.90;;;;;;5089399;28;20054;-85
2022/11/14 06:39:14;;;;;;;17.67;9.60;;;7.40;99.90;;;;;;5089645;28;20051;-85
2022/11/14 06:42:00;;;;;;;15.13;8.95;;;7.40;99.90;;;;;;5080552;28;20067;-83
2022/11/14 06:44:46;;;;;;;14.80;8.90;;;7.40;99.90;;;;;;5083892;28;20055;-87
2022/11/14 06:47:33;;;;;;;16.92;9.73;;;7.40;99.90;;;;;;5088290;28;20132;-81
2022/11/14 06:50:18;;;;;;;16.30;10.25;;;7.40;99.90;;;;;;5076659;28;20055;-81
2022/11/14 06:53:04;;;;;;;19.35;9.38;;;7.40;99.90;;;;;;5081200;28;20058;-81
2022/11/14 06:55:55;;;;;;;17.13;9.60;;;7.40;99.90;;;;;;5080750;28;20161;-81
2022/11/14 06:58:43;;;;;;;16.92;10.23;;;7.40;99.90;;;;;;5087164;28;20587;-81
2022/11/14 07:01:28;;;;;;;15.90;9.60;;;7.40;99.90;;;;;;5077738;28;20117;-81
2022/11/14 07:04:15;;;;;;;16.67;10.25;;;7.50;99.90;;;;;;5085022;28;20070;-81
2022/11/14 07:07:00;;;;;;;15.45;9.68;;;7.30;99.90;;;;;;5077515;28;20059;-81
2022/11/14 07:09:46;;;;;;;17.63;10.20;;;7.30;99.90;;;;;;5069688;28;20129;-81
2022/11/14 07:12:32;;;;;;;14.73;9.93;;;7.30;99.90;;;;;;5078423;28;20421;-81
2022/11/14 07:15:18;;;;;;;18.00;9.43;;;7.30;99.90;;;;;;5076685;28;20047;-80
2022/11/14 07:18:04;;;;;;;16.08;9.80;;;7.30;99.90;;;;;;5085841;28;20066;-80
2022/11/14 07:20:50;;;;;;;17.17;9.77;;;7.30;99.90;;;;;;5088021;28;20917;-80
2022/11/14 07:23:36;;;;;;;18.75;12.43;;;7.30;99.90;;;;;;5082295;28;20059;-82
2022/11/14 07:26:21;;;;;;;22.08;13.15;;;7.30;99.90;;;;;;5081309;28;20056;-83
2022/11/14 07:29:06;;;;;;;19.05;11.27;;;7.40;99.90;;;;;;5083632;28;20063;-84
2022/11/14 07:31:52;;;;;;;19.55;11.63;;;7.40;99.90;;;;;;5077199;28;20071;-84
2022/11/14 07:34:38;;;;;;;15.68;10.60;;;7.40;99.90;;;;;;5081237;28;20101;-83
2022/11/14 07:37:25;;;;;;;18.27;10.40;;;7.50;99.90;;;;;;5083499;28;20738;-84
2022/11/14 07:40:11;;;;;;;17.67;9.95;;;7.60;99.90;;;;;;5084284;28;20582;-84
2022/11/14 07:43:00;;;;;;;16.10;9.85;;;7.60;99.90;;;;;;5073710;28;20101;-84
2022/11/14 07:45:46;;;;;;;16.10;9.50;;;7.70;99.90;;;;;;5076949;28;20122;-84
2022/11/14 07:48:32;;;;;;;20.25;9.68;;;7.70;99.90;;;;;;5068369;28;20051;-84
2022/11/14 07:51:19;;;;;;;15.60;9.65;;;7.80;99.90;;;;;;5084956;28;20063;-85
2022/11/14 07:54:05;;;;;;;15.88;9.65;;;7.80;99.90;;;;;;5077660;28;20051;-84
2022/11/14 07:56:51;;;;;;;19.52;11.27;;;7.80;99.90;;;;;;5076517;28;20528;-83
2022/11/14 07:59:36;;;;;;;18.90;10.73;;;7.90;99.90;;;;;;5073888;28;20057;-87
2022/11/14 08:02:22;;;;;;;16.10;9.95;;;7.90;99.90;;;;;;5075549;28;20047;-88
2022/11/14 08:05:08;;;;;;;19.02;10.90;;;8.00;99.90;;;;;;5071539;28;20064;-87
2022/11/14 08:07:54;;;;;;;16.88;10.50;;;8.00;99.90;;;;;;5073106;28;20515;-87
2022/11/14 08:10:40;;;;;;;17.05;10.57;;;8.10;99.90;;;;;;5077312;28;20605;-86
2022/11/14 08:13:26;;;;;;;19.25;11.10;;;8.20;99.90;;;;;;5084858;28;20116;-87
2022/11/14 08:16:11;;;;;;;19.92;10.40;;;8.20;99.90;;;;;;5082600;28;20164;-87
2022/11/14 08:18:57;;;;;;;16.00;10.60;;;8.30;99.90;;;;;;5076670;28;20171;-87
2022/11/14 08:21:42;;;;;;;21.35;10.80;;;8.30;99.90;;;;;;5085774;28;20645;-86
2022/11/14 08:24:28;;;;;;;18.33;11.20;;;8.40;99.90;;;;;;5078370;28;20062;-86
2022/11/14 08:27:15;;;;;;;19.70;11.00;;;8.40;99.90;;;;;;5080436;28;20059;-88
2022/11/14 08:30:00;;;;;;;20.80;11.70;;;8.50;99.90;;;;;;5079318;28;20182;-88
2022/11/14 08:32:46;;;;;;;19.90;11.68;;;8.50;99.90;;;;;;5089406;28;20059;-87
2022/11/14 08:35:33;;;;;;;21.38;11.25;;;8.60;99.90;;;;;;5081389;28;20048;-86
2022/11/14 08:38:18;;;;;;;17.98;11.05;;;8.60;99.90;;;;;;5084059;28;20055;-83
2022/11/14 08:41:04;;;;;;;19.42;11.57;;;8.70;99.90;;;;;;5079959;28;20055;-86
2022/11/14 08:43:51;;;;;;;24.35;12.05;;;8.70;99.90;;;;;;5077970;28;20120;-84
2022/11/14 08:46:36;;;;;;;20.42;11.43;;;8.70;99.90;;;;;;5082887;28;20522;-85
2022/11/14 08:49:22;;;;;;;20.05;12.32;;;8.80;99.90;;;;;;5084890;28;20097;-85
2022/11/14 08:52:07;;;;;;;24.23;12.25;;;8.80;99.90;;;;;;5086097;28;20526;-86
2022/11/14 08:54:53;;;;;;;20.08;12.32;;;8.80;99.90;;;;;;5073964;28;20169;-85
2022/11/14 08:57:38;;;;;;;22.00;11.85;;;8.90;99.90;;;;;;5080131;28;20518;-85
2022/11/14 09:01:20;;;;;;;24.85;13.98;;;8.90;99.90;;;;;;5077840;28;20598;-88
2022/11/14 09:04:07;;;;;;;34.42;18.33;;;8.90;99.90;;;;;;5085963;28;20067;-85
2022/11/14 09:06:53;;;;;;;32.70;17.55;;;9.00;99.90;;;;;;5079409;28;20051;-86
2022/11/14 09:09:39;;;;;;;26.25;14.88;;;9.10;99.90;;;;;;5070935;28;20528;-86
2022/11/14 09:12:24;;;;;;;29.20;14.73;;;9.10;99.90;;;;;;5080951;28;20181;-85
2022/11/14 09:15:10;;;;;;;24.67;14.10;;;9.20;99.90;;;;;;5081316;28;20052;-86
2022/11/14 09:18:04;;;;;;;23.63;14.23;;;9.20;99.90;;;;;;5084756;28;20105;-87
2022/11/14 09:20:51;;;;;;;25.80;15.38;;;9.20;99.90;;;;;;5070862;28;20056;-85
2022/11/14 09:23:36;;;;;;;26.90;16.13;;;9.20;99.90;;;;;;5081689;28;20377;-84
2022/11/14 09:26:21;;;;;;;25.60;15.50;;;9.30;99.90;;;;;;5084567;28;20059;-81
2022/11/14 09:29:07;;;;;;;26.63;15.02;;;9.30;99.90;;;;;;5080738;28;20055;-80
2022/11/14 09:31:53;;;;;;;30.35;16.50;;;9.40;99.90;;;;;;5091106;28;20051;-82
2022/11/14 09:34:41;;;;;;;25.08;15.65;;;9.50;99.90;;;;;;5088420;28;20043;-82
2022/11/14 09:37:28;;;;;;;26.85;15.93;;;9.50;99.90;;;;;;5083362;28;20102;-81
2022/11/14 09:40:14;;;;;;;25.77;15.88;;;9.60;99.90;;;;;;5078220;28;20065;-82
2022/11/14 09:43:11;;;;;;;27.55;16.50;;;9.60;99.90;;;;;;5081048;28;20531;-82
2022/11/14 09:45:57;;;;;;;25.80;16.15;;;9.60;99.90;;;;;;5076774;28;20059;-81
2022/11/14 09:48:43;;;;;;;28.05;16.77;;;9.70;99.90;;;;;;5079279;28;20067;-79
2022/11/14 09:51:31;;;;;;;25.52;15.63;;;9.70;99.90;;;;;;5074962;28;20055;-81
2022/11/14 09:54:21;;;;;;;28.75;17.13;;;9.70;99.90;;;;;;5085228;28;20051;-81
2022/11/14 09:57:14;;;;;;;28.05;16.80;;;9.80;99.90;;;;;;5085395;28;20117;-81
2022/11/14 10:00:00;;;;;;;29.65;17.17;;;9.80;99.90;;;;;;5076318;28;20071;-81
2022/11/14 10:02:58;;;;;;;26.10;16.02;;;9.80;99.90;;;;;;5086943;28;20063;-81
2022/11/14 10:05:58;;;;;;;28.23;16.73;;;9.90;99.90;;;;;;5089368;28;20533;-81
2022/11/14 10:08:50;;;;;;;29.90;17.58;;;9.90;99.90;;;;;;5070114;28;20052;-81
2022/11/14 10:11:39;;;;;;;29.17;17.35;;;9.90;99.90;;;;;;5082639;28;20419;-81
2022/11/14 10:14:55;;;;;;;28.63;16.33;;;10.00;99.90;;;;;;5081239;28;20059;-80
2022/11/14 10:17:54;;;;;;;25.10;15.05;;;10.00;99.90;;;;;;5082149;28;20170;-80
2022/11/14 10:20:44;;;;;;;25.10;14.88;;;10.00;99.90;;;;;;5079432;28;20102;-81
2022/11/14 10:23:37;;;;;;;26.05;14.20;;;10.00;99.90;;;;;;5076649;28;20093;-81
2022/11/14 10:26:33;;;;;;;23.08;13.48;;;10.10;99.90;;;;;;5082453;28;20050;-81
2022/11/14 10:29:41;;;;;;;25.92;13.75;;;10.10;99.90;;;;;;5078080;28;20048;-86
2022/11/14 10:32:35;;;;;;;21.60;13.27;;;10.10;99.90;;;;;;5078560;28;20487;-83
2022/11/14 10:35:24;;;;;;;20.45;11.98;;;10.20;99.90;;;;;;5083996;28;20213;-80
2022/11/14 10:38:14;;;;;;;19.95;11.98;;;10.20;99.90;;;;;;5081888;28;20054;-80
2022/11/14 10:41:02;;;;;;;20.25;10.98;;;10.10;99.90;;;;;;5079287;28;20112;-80
2022/11/14 10:43:48;;;;;;;19.77;11.88;;;10.10;99.90;;;;;;5081931;28;20066;-81
2022/11/14 10:46:38;;;;;;;16.92;10.38;;;10.20;99.90;;;;;;5069128;28;20565;-81
2022/11/14 10:49:25;;;;;;;19.27;10.95;;;10.20;99.90;;;;;;5077345;28;20131;-82
2022/11/14 10:52:13;;;;;;;18.15;10.57;;;10.30;99.90;;;;;;5078124;28;20075;-80
2022/11/14 10:55:00;;;;;;;17.50;9.95;;;10.30;99.90;;;;;;5075281;28;20052;-81
2022/11/14 10:57:46;;;;;;;17.33;9.73;;;10.30;99.90;;;;;;5078135;28;20067;-81
2022/11/14 11:00:32;;;;;;;15.52;9.68;;;10.30;99.90;;;;;;5084769;28;20071;-81
2022/11/14 11:03:18;;;;;;;17.02;9.68;;;10.30;99.90;;;;;;5083690;28;20159;-80
2022/11/14 11:06:04;;;;;;;17.13;9.55;;;10.40;99.90;;;;;;5082933;28;20046;-80
2022/11/14 11:11:57;;;;;;;15.32;9.15;;;10.40;99.90;;;;;;5083287;28;20055;-90
2022/11/14 11:14:43;;;;;;;15.13;9.02;;;10.50;99.90;;;;;;5072060;28;20055;-86
2022/11/14 11:17:28;;;;;;;15.63;9.60;;;10.50;99.90;;;;;;5081558;28;20157;-88
2022/11/14 11:20:27;;;;;;;16.75;9.30;;;10.50;99.90;;;;;;5091462;28;20424;-86
2022/11/14 11:23:19;;;;;;;15.30;8.90;;;10.50;99.90;;;;;;5084569;28;20186;-91
2022/11/14 11:26:08;;;;;;;16.52;9.88;;;10.50;99.90;;;;;;5087085;28;20051;-92
2022/11/14 11:29:15;;;;;;;18.38;10.50;;;10.60;99.90;;;;;;5073160;28;20056;-91
2022/11/14 11:32:01;;;;;;;16.20;9.60;;;10.60;99.90;;;;;;5071549;28;20063;-92
2022/11/14 11:34:46;;;;;;;16.77;9.90;;;10.60;99.90;;;;;;5072568;28;20420;-92
2022/11/14 11:37:38;;;;;;;15.93;10.02;;;10.70;99.90;;;;;;5069671;28;20117;-90
2022/11/14 11:40:26;;;;;;;17.65;10.25;;;10.70;99.90;;;;;;5075915;28;20047;-90
2022/11/14 11:43:16;;;;;;;18.20;10.02;;;10.70;99.90;;;;;;5082348;28;20062;-87
2022/11/14 11:46:05;;;;;;;17.20;9.80;;;10.70;99.90;;;;;;5085979;28;20047;-92
2022/11/14 11:48:56;;;;;;;17.38;10.70;;;10.80;99.90;;;;;;5089308;28;20136;-90
2022/11/14 11:51:43;;;;;;;18.53;10.70;;;10.80;99.90;;;;;;5090949;28;20056;-90
2022/11/14 11:54:33;;;;;;;19.83;11.95;;;10.90;99.90;;;;;;5083468;28;20071;-88
2022/11/14 11:57:19;;;;;;;20.02;11.75;;;10.90;99.90;;;;;;5086224;28;20063;-85
2022/11/14 12:00:14;;;;;;;20.73;12.23;;;10.90;99.90;;;;;;5080640;28;20162;-83
2022/11/14 12:03:02;;;;;;;20.40;12.18;;;10.90;99.90;;;;;;5083942;28;20063;-84
2022/11/14 12:05:55;;;;;;;22.48;12.85;;;10.90;99.90;;;;;;5081703;28;20097;-83
2022/11/14 12:08:52;;;;;;;20.23;12.65;;;10.90;99.90;;;;;;5081438;28;20070;-85
2022/11/14 12:11:42;;;;;;;20.58;12.73;;;10.90;99.90;;;;;;5085250;28;20626;-84
2022/11/14 12:15:00;;;;;;;21.27;12.55;;;10.90;99.90;;;;;;5080012;28;20051;-85
2022/11/14 12:18:06;;;;;;;20.85;12.35;;;11.00;99.90;;;;;;5052468;28;20113;-85
2022/11/14 12:21:12;;;;;;;21.55;13.10;;;11.00;99.90;;;;;;5085495;28;20113;-85
2022/11/14 12:24:32;;;;;;;20.90;12.27;;;11.10;99.90;;;;;;5075549;28;20059;-85
2022/11/14 12:27:36;;;;;;;19.92;12.90;;;11.10;99.90;;;;;;5081041;28;20051;-92
2022/11/14 12:30:22;;;;;;;22.63;13.40;;;11.10;99.90;;;;;;5084107;28;20063;-86
2022/11/14 12:33:10;;;;;;;20.60;12.45;;;11.10;99.90;;;;;;5084422;28;20052;-85
2022/11/14 12:35:58;;;;;;;22.40;12.63;;;11.10;99.90;;;;;;5088660;28;20051;-86
2022/11/14 12:38:45;;;;;;;20.98;12.52;;;11.20;99.90;;;;;;5078224;28;20102;-80
2022/11/14 12:41:33;;;;;;;23.85;12.55;;;11.20;99.90;;;;;;5081437;28;20120;-81
2022/11/14 12:44:36;;;;;;;19.33;11.98;;;11.20;99.90;;;;;;5089082;28;20149;-81
2022/11/14 12:47:23;;;;;;;19.27;11.30;;;11.20;99.90;;;;;;5080789;28;20101;-81
2022/11/14 12:50:28;;;;;;;19.13;11.15;;;11.20;99.90;;;;;;5077682;28;20066;-82
2022/11/14 12:53:42;;;;;;;18.65;11.13;;;11.30;99.90;;;;;;5080057;28;20054;-81
2022/11/14 12:57:08;;;;;;;17.80;10.70;;;11.30;99.90;;;;;;5070400;28;20063;-79
2022/11/14 13:00:03;;;;;;;18.38;10.80;;;11.30;99.90;;;;;;5085771;28;20594;-79
2022/11/14 13:03:08;;;;;;;17.73;10.18;;;11.30;99.90;;;;;;5076715;28;20059;-82
2022/11/14 13:05:57;;;;;;;16.55;10.35;;;11.30;99.90;;;;;;5086497;28;20634;-83
2022/11/14 13:09:25;;;;;;;15.93;10.10;;;11.30;99.90;;;;;;5084374;28;20070;-86
2022/11/14 13:22:32;;;;;;;14.43;9.27;;;11.40;99.90;;;;;;5078273;28;20038;-87
2022/11/14 13:25:23;;;;;;;16.42;9.02;;;11.40;99.90;;;;;;5079167;28;20109;-89
2022/11/14 13:28:47;;;;;;;16.43;9.73;;;11.40;99.90;;;;;;5090319;28;20058;-88
2022/11/14 13:31:49;;;;;;;17.20;9.45;;;11.40;99.90;;;;;;5086126;28;20059;-89
2022/11/14 13:34:42;;;;;;;16.45;9.95;;;11.60;99.90;;;;;;5082967;28;20132;-90
2022/11/14 13:37:40;;;;;;;16.55;10.10;;;11.50;99.90;;;;;;5078760;28;20048;-89
2022/11/14 13:40:30;;;;;;;18.30;10.43;;;11.50;99.90;;;;;;5081296;28;20047;-89
2022/11/14 13:43:21;;;;;;;17.00;10.65;;;11.50;99.90;;;;;;5075335;28;20199;-89
2022/11/14 13:46:12;;;;;;;18.70;11.10;;;11.50;99.90;;;;;;5075359;28;20555;-91
2022/11/14 13:49:13;;;;;;;18.52;11.25;;;11.50;99.90;;;;;;5074823;28;20066;-91
2022/11/14 13:51:59;;;;;;;18.27;11.13;;;11.50;99.90;;;;;;5076603;28;20059;-91
2022/11/14 13:54:48;;;;;;;20.30;11.73;;;11.50;99.90;;;;;;5075928;28;20547;-91
2022/11/14 13:57:42;;;;;;;18.20;11.57;;;11.60;99.90;;;;;;5076681;28;20936;-90
2022/11/14 14:00:30;;;;;;;19.92;12.07;;;11.60;99.90;;;;;;5077691;28;20077;-91
2022/11/14 14:03:25;;;;;;;22.42;12.38;;;11.60;99.90;;;;;;5076965;28;20063;-90
2022/11/14 14:06:33;;;;;;;19.95;12.52;;;11.60;99.90;;;;;;5076437;28;20128;-92
2022/11/14 14:09:25;;;;;;;19.90;12.00;;;11.60;99.90;;;;;;5074782;28;20059;-90
2022/11/14 14:12:27;;;;;;;20.58;12.27;;;11.60;99.90;;;;;;5074709;28;20133;-89
2022/11/14 14:15:21;;;;;;;20.08;12.05;;;11.60;99.90;;;;;;5076255;28;20055;-90
2022/11/14 14:18:13;;;;;;;23.75;13.05;;;11.60;99.90;;;;;;5076619;28;20093;-90
2022/11/14 14:21:04;;;;;;;22.77;12.95;;;11.60;99.90;;;;;;5077746;28;20051;-91
2022/11/14 14:23:55;;;;;;;22.92;13.45;;;11.70;99.90;;;;;;5080182;28;20542;-90
2022/11/14 14:26:54;;;;;;;18.88;12.23;;;11.60;99.90;;;;;;5074922;28;20051;-91
2022/11/14 14:29:54;;;;;;;23.45;13.25;;;11.60;99.90;;;;;;5069822;27;20516;-93
2022/11/14 14:32:40;;;;;;;20.60;12.63;;;11.60;99.90;;;;;;5073918;28;20052;-92
2022/11/14 14:35:31;;;;;;;22.23;12.02;;;11.60;99.90;;;;;;5065838;28;20420;-92
2022/11/14 14:38:23;;;;;;;23.67;13.13;;;11.60;99.90;;;;;;5066697;28;20043;-92
2022/11/14 14:41:10;;;;;;;21.63;12.25;;;11.60;99.90;;;;;;5061436;28;20063;-94